< < Back
Terminal Aerodrome Forecast


Current Version              Previous Versions:   1  2  3  4  5  6  7  8  9  

Terminal Aerodrome Forecast

223
FTUS42 KMLB 260538
TAFMCO
TAF
KMCO 260538Z 2606/2706 VRB02KT P6SM SKC
     FM261400 14006KT P6SM SCT035
     FM262000 13008KT P6SM VCTS SCT040CB BKN080
     FM270000 14003KT P6SM SCT100=

Latest METAR

298
SAUS70 KWBC 261000 RRB
MTRMCO
METAR KMCO 260953Z 16003KT 10SM FEW042 25/23 A3007 RMK AO2 SLP182
T02500228


USA.gov is the U.S. government's official web portal to all federal, state and local government web resources and services.